This is the latest recevied weather packets stored in our database for station/object KB2SKP. If no packets are shown the sender has not sent any weather packets the latest 10 day(s).
| Time | Temp. | Humidity | Pressure | Rain* | Wind** | Luminosity | Snow |
|---|---|---|---|---|---|---|---|
| 1777825415 | 12.78° C | 34% | 1013.3 hPa | 0 mm | - | 18 W/m² | - |
| 1777823291 | 11.67° C | 37% | 1013.4 hPa | 0 mm | - | 31 W/m² | - |
| 1777821476 | 11.67° C | 38% | 1013.7 hPa | 0 mm | - | 31 W/m² | - |
| 1777819658 | 10.56° C | 41% | 1013.6 hPa | 0 mm | - | 58 W/m² | - |
| 1777818750 | 11.11° C | 40% | 1013.6 hPa | 0 mm | - | 30 W/m² | - |
| 1777818446 | 10.56° C | 41% | 1013.4 hPa | 0 mm | - | 39 W/m² | - |
| 1777818143 | 10.56° C | 41% | 1013.5 hPa | 0 mm | - | 34 W/m² | - |
| 1777817537 | 10° C | 41% | 1013.8 hPa | 0 mm | - | 143 W/m² | - |
| 1777816627 | 9.44° C | 45% | 1013.3 hPa | 0 mm | - | 53 W/m² | - |
| 1777815416 | 8.89° C | 48% | 1013.5 hPa | 0 mm | - | 85 W/m² | - |
| 1777815113 | 8.89° C | 46% | 1013.5 hPa | 0 mm | - | 244 W/m² | - |
| 1777814506 | 8.89° C | 48% | 1013.5 hPa | 0 mm | - | 41 W/m² | - |
| 1777813598 | 8.89° C | 50% | 1013.7 hPa | 0 mm | - | 26 W/m² | - |
| 1777812690 | 8.89° C | 50% | 1013.6 hPa | 0 mm | - | 24 W/m² | - |
| 1777812085 | 8.33° C | 54% | 1013.5 hPa | 0 mm | - | 26 W/m² | - |
| 1777811783 | 8.33° C | 53% | 1013.2 hPa | 0 mm | - | 22 W/m² | - |
| 1777811480 | 8.33° C | 56% | 1013.3 hPa | 0 mm | - | 26 W/m² | - |
| 1777810569 | 8.33° C | 57% | 1013.1 hPa | 0 mm | - | 21 W/m² | - |
| 1777810267 | 7.78° C | 58% | 1013 hPa | 0 mm | - | 19 W/m² | - |
| 1777809962 | 7.78° C | 60% | 1013.4 hPa | 0 mm | - | 19 W/m² | - |
| 1777809660 | 7.78° C | 59% | 1013.5 hPa | 0 mm | - | 19 W/m² | - |
| 1777809358 | 7.78° C | 60% | 1013.2 hPa | 0 mm | - | 17 W/m² | - |
| 1777808753 | 7.22° C | 64% | 1012.9 hPa | 0 mm | - | 16 W/m² | - |
| 1777808147 | 7.22° C | 65% | 1013 hPa | 0 mm | - | 15 W/m² | - |
| 1777807845 | 6.67° C | 67% | 1012.9 hPa | 0 mm | - | 15 W/m² | - |
* Rain latest hour (hover to see other rain measurements)
** Current wind speed in m/s (hover to see current wind gust speed)